Time;durP1;ratioP1;P1;durP2;ratioP2;P2;SDS_P1;SDS_P2;PMS_P1;PMS_P2;Temp;Humidity;BMP_temperature;BMP_pressure;BME280_temperature;BME280_humidity;BME280_pressure;Samples;Min_cycle;Max_cycle;Signal;HPM_P1;HPM_P2
2022/05/06 00:02:26;;;;;;;16.02;12.02;;;;;;;;;;4990093;28;20035;-59
2022/05/06 00:07:50;;;;;;;18.15;12.38;;;;;;;;;;5009987;28;20041;-59
2022/05/06 00:13:53;;;;;;;18.95;12.00;;;;;;;;;;5040300;28;20054;-59
2022/05/06 00:19:15;;;;;;;16.05;12.50;;;;;;;;;;5111601;28;20032;-59
2022/05/06 00:21:48;;;;;;;20.75;13.15;;;;;;;;;;5089252;28;20033;-59
2022/05/06 00:24:34;;;;;;;16.25;11.93;;;;;;;;;;5089556;28;20064;-59
2022/05/06 00:27:10;;;;;;;15.35;12.45;;;;;;;;;;5085741;28;20052;-59
2022/05/06 00:29:40;;;;;;;20.40;14.77;;;;;;;;;;5089501;28;20071;-59
2022/05/06 00:32:21;;;;;;;15.93;14.27;;;;;;;;;;5089265;28;20039;-59
2022/05/06 00:35:16;;;;;;;17.75;13.85;;;;;;;;;;5089335;28;20024;-59
2022/05/06 00:38:11;;;;;;;23.98;14.98;;;;;;;;;;5070970;28;20043;-59
2022/05/06 00:40:53;;;;;;;14.52;12.85;;;;;;;;;;5080798;28;20070;-59
2022/05/06 01:02:33;;;;;;;17.50;15.20;;;;;;;;;;5008970;28;20110;-59
2022/05/06 01:05:24;;;;;;;19.88;14.77;;;;;;;;;;5008150;28;20037;-59
2022/05/06 01:08:23;;;;;;;15.77;14.02;;;;;;;;;;5008088;28;20542;-59
2022/05/06 01:11:02;;;;;;;21.05;14.55;;;;;;;;;;5003856;28;20102;-59
2022/05/06 01:13:55;;;;;;;15.02;13.40;;;;;;;;;;5007683;28;20027;-59
2022/05/06 01:22:11;;;;;;;15.38;13.13;;;;;;;;;;5095054;28;20519;-59
2022/05/06 01:27:30;;;;;;;18.90;14.38;;;;;;;;;;5086758;28;20397;-59
2022/05/06 01:30:01;;;;;;;22.30;15.05;;;;;;;;;;5087671;28;20052;-59
2022/05/06 01:32:37;;;;;;;15.85;14.18;;;;;;;;;;5087759;28;20037;-59
2022/05/06 01:38:03;;;;;;;16.23;14.50;;;;;;;;;;5086854;28;20059;-59
2022/05/06 01:40:33;;;;;;;15.65;13.23;;;;;;;;;;5087261;28;20060;-59
2022/05/06 01:43:09;;;;;;;18.17;14.23;;;;;;;;;;5046989;28;20120;-59
2022/05/06 01:48:54;;;;;;;14.95;13.32;;;;;;;;;;5034280;28;20033;-59
2022/05/06 01:51:21;;;;;;;19.65;13.88;;;;;;;;;;5047220;28;20042;-59
2022/05/06 01:54:08;;;;;;;16.88;14.88;;;;;;;;;;5030637;28;20499;-59
2022/05/06 01:57:06;;;;;;;17.08;15.25;;;;;;;;;;5047300;28;20060;-59
2022/05/06 02:00:01;;;;;;;21.15;15.20;;;;;;;;;;5047437;28;20037;-59
2022/05/06 02:02:51;;;;;;;19.27;14.55;;;;;;;;;;5049119;28;20037;-59
2022/05/06 02:12:03;;;;;;;15.63;12.75;;;;;;;;;;5026854;28;20377;-59
2022/05/06 02:14:51;;;;;;;14.18;12.55;;;;;;;;;;5093645;28;20085;-59
2022/05/06 02:17:42;;;;;;;22.48;15.25;;;;;;;;;;5109267;28;20024;-59
2022/05/06 02:20:26;;;;;;;15.65;13.98;;;;;;;;;;5109859;28;20030;-59
2022/05/06 02:23:28;;;;;;;17.00;14.15;;;;;;;;;;5108975;28;20361;-59
2022/05/06 02:26:18;;;;;;;15.43;13.77;;;;;;;;;;5109199;28;20130;-59
2022/05/06 02:29:17;;;;;;;16.23;13.75;;;;;;;;;;5089743;28;20055;-59
2022/05/06 02:34:47;;;;;;;18.02;14.35;;;;;;;;;;5109106;28;20038;-59
2022/05/06 02:40:22;;;;;;;15.18;13.57;;;;;;;;;;5079681;28;20111;-59
2022/05/06 02:49:35;;;;;;;14.27;12.45;;;;;;;;;;5027066;28;20036;-59
2022/05/06 02:52:06;;;;;;;18.30;14.13;;;;;;;;;;5026496;28;20377;-59
2022/05/06 02:54:40;;;;;;;14.25;12.18;;;;;;;;;;5009786;28;20038;-59
2022/05/06 02:57:23;;;;;;;17.85;14.13;;;;;;;;;;5024558;28;20487;-59
2022/05/06 03:00:07;;;;;;;18.83;13.82;;;;;;;;;;5026244;28;20042;-59
2022/05/06 03:02:45;;;;;;;16.60;12.57;;;;;;;;;;5026646;28;20026;-59
2022/05/06 03:05:20;;;;;;;17.58;13.25;;;;;;;;;;5026551;28;20026;-59
2022/05/06 03:08:09;;;;;;;19.88;14.73;;;;;;;;;;5026177;28;20046;-59
2022/05/06 03:10:45;;;;;;;14.63;13.10;;;;;;;;;;4967744;29;20044;-59
2022/05/06 03:16:32;;;;;;;17.45;12.90;;;;;;;;;;5108002;28;20037;-59
2022/05/06 03:19:11;;;;;;;16.52;13.85;;;;;;;;;;5105663;28;20029;-59
2022/05/06 03:21:51;;;;;;;13.70;11.20;;;;;;;;;;5089335;28;20127;-59
2022/05/06 03:24:45;;;;;;;15.35;13.75;;;;;;;;;;5090447;28;20028;-59
2022/05/06 03:33:28;;;;;;;17.20;13.40;;;;;;;;;;5084725;28;20090;-59
2022/05/06 03:36:02;;;;;;;15.60;12.43;;;;;;;;;;5054314;28;20483;-59
2022/05/06 03:38:50;;;;;;;18.33;13.60;;;;;;;;;;5055544;28;20029;-58
2022/05/06 03:41:31;;;;;;;15.20;13.60;;;;;;;;;;5055626;28;20044;-58
2022/05/06 03:44:06;;;;;;;17.77;14.05;;;;;;;;;;5055183;28;20467;-59
2022/05/06 03:46:55;;;;;;;17.20;13.80;;;;;;;;;;5055067;28;20036;-59
2022/05/06 03:49:38;;;;;;;17.45;13.60;;;;;;;;;;5048081;28;20060;-59
2022/05/06 03:55:00;;;;;;;15.00;12.30;;;;;;;;;;5055384;28;20079;-59
2022/05/06 03:57:42;;;;;;;18.20;13.48;;;;;;;;;;5055254;28;20095;-59
2022/05/06 04:00:20;;;;;;;15.52;13.65;;;;;;;;;;5029570;28;20045;-59
2022/05/06 04:15:48;;;;;;;18.98;13.30;;;;;;;;;;4995261;28;20034;-59
2022/05/06 04:18:35;;;;;;;15.15;12.18;;;;;;;;;;4999152;28;20455;-59
2022/05/06 04:24:37;;;;;;;15.90;10.75;;;;;;;;;;5015335;28;20137;-59
2022/05/06 04:30:50;;;;;;;17.75;13.68;;;;;;;;;;5033952;28;20597;-59
2022/05/06 04:33:26;;;;;;;18.95;13.05;;;;;;;;;;5031534;28;20056;-59
2022/05/06 04:39:21;;;;;;;18.33;12.82;;;;;;;;;;5010643;28;20062;-59
2022/05/06 04:41:53;;;;;;;14.13;12.38;;;;;;;;;;5048184;28;20092;-58
2022/05/06 04:44:42;;;;;;;16.10;13.38;;;;;;;;;;5008554;28;20094;-59
2022/05/06 04:47:24;;;;;;;13.88;12.38;;;;;;;;;;5049078;28;20048;-58
2022/05/06 04:52:47;;;;;;;16.08;13.25;;;;;;;;;;5069247;28;20031;-58
2022/05/06 04:58:39;;;;;;;13.05;11.68;;;;;;;;;;5020059;28;20058;-58
2022/05/06 05:07:04;;;;;;;17.40;13.98;;;;;;;;;;5029082;28;20473;-58
2022/05/06 05:09:42;;;;;;;16.90;14.23;;;;;;;;;;5027327;28;20069;-58
2022/05/06 05:12:18;;;;;;;18.67;14.30;;;;;;;;;;5028389;28;20022;-58
2022/05/06 05:15:02;;;;;;;19.58;14.75;;;;;;;;;;5027052;28;20361;-58
2022/05/06 05:17:58;;;;;;;17.30;14.30;;;;;;;;;;4988752;28;20065;-58
2022/05/06 05:20:37;;;;;;;15.68;13.30;;;;;;;;;;4930522;29;20055;-58
2022/05/06 05:23:31;;;;;;;16.38;14.65;;;;;;;;;;4967347;29;20078;-58
2022/05/06 05:26:26;;;;;;;14.52;12.75;;;;;;;;;;4968566;29;20031;-58
2022/05/06 05:32:42;;;;;;;14.07;12.68;;;;;;;;;;4882854;29;20203;-58
2022/05/06 05:35:39;;;;;;;;;;;;;;;;;;;;;
2022/05/06 05:38:29;;;;;;;18.45;13.70;;;;;;;;;;4930481;29;20063;-58
2022/05/06 05:41:24;;;;;;;13.45;12.07;;;;;;;;;;4913509;29;20048;-58
2022/05/06 05:50:12;;;;;;;15.68;12.60;;;;;;;;;;5108526;28;20034;-58
2022/05/06 05:52:41;;;;;;;12.82;9.57;;;;;;;;;;5109346;28;20431;-58
2022/05/06 05:55:26;;;;;;;16.15;13.02;;;;;;;;;;5109265;28;20032;-59
2022/05/06 05:58:27;;;;;;;12.32;11.02;;;;;;;;;;5108049;28;20035;-58
2022/05/06 06:01:08;;;;;;;13.95;11.40;;;;;;;;;;5045851;28;20144;-58
2022/05/06 06:03:49;;;;;;;13.40;12.00;;;;;;;;;;5012837;28;20029;-58
2022/05/06 06:13:07;;;;;;;12.93;10.95;;;;;;;;;;5004231;28;20030;-58
2022/05/06 06:22:04;;;;;;;14.05;12.10;;;;;;;;;;5096400;28;20039;-58
2022/05/06 06:24:48;;;;;;;12.90;11.52;;;;;;;;;;5101934;28;20070;-58
2022/05/06 06:27:39;;;;;;;;;;;;;;;;;;;;;
2022/05/06 06:30:17;;;;;;;14.98;11.93;;;;;;;;;;5105986;28;20083;-58
2022/05/06 06:32:56;;;;;;;14.63;12.85;;;;;;;;;;5088429;28;20079;-58
2022/05/06 06:35:41;;;;;;;16.70;11.70;;;;;;;;;;5106622;28;20456;-58
2022/05/06 06:38:29;;;;;;;17.17;12.75;;;;;;;;;;5104625;28;20028;-59
2022/05/06 06:41:04;;;;;;;18.05;13.00;;;;;;;;;;5105861;28;20058;-58
2022/05/06 06:43:46;;;;;;;13.02;11.68;;;;;;;;;;5087616;28;20103;-58
2022/05/06 06:46:21;;;;;;;16.88;11.82;;;;;;;;;;5103120;28;20059;-58
2022/05/06 06:48:59;;;;;;;18.13;12.30;;;;;;;;;;5104664;28;20435;-58
2022/05/06 06:51:44;;;;;;;12.57;11.38;;;;;;;;;;5103715;28;20034;-58
2022/05/06 06:54:16;;;;;;;14.98;11.57;;;;;;;;;;5104632;28;20020;-59
2022/05/06 06:56:51;;;;;;;12.50;10.75;;;;;;;;;;5088516;28;20020;-58
2022/05/06 07:02:04;;;;;;;12.48;11.27;;;;;;;;;;5105640;28;20107;-59
2022/05/06 07:04:51;;;;;;;14.82;11.15;;;;;;;;;;5103637;28;20025;-59
2022/05/06 07:13:37;;;;;;;11.68;10.48;;;;;;;;;;5092130;28;20027;-59
2022/05/06 07:16:09;;;;;;;13.40;9.80;;;;;;;;;;5106060;28;20044;-59
2022/05/06 07:18:53;;;;;;;11.68;8.23;;;;;;;;;;5111247;28;20024;-59
2022/05/06 07:24:34;;;;;;;13.25;9.77;;;;;;;;;;5067407;28;20058;-59
2022/05/06 07:27:00;;;;;;;11.43;9.52;;;;;;;;;;5093731;28;20090;-59
2022/05/06 07:29:37;;;;;;;11.05;9.23;;;;;;;;;;5107956;28;20040;-59
2022/05/06 07:35:20;;;;;;;11.30;9.38;;;;;;;;;;5097215;28;20040;-59
2022/05/06 07:38:06;;;;;;;9.68;7.85;;;;;;;;;;5068498;28;20111;-59
2022/05/06 07:41:04;;;;;;;10.35;9.25;;;;;;;;;;5096824;28;20039;-59
2022/05/06 07:43:43;;;;;;;9.50;8.50;;;;;;;;;;5081405;28;20039;-59
2022/05/06 07:46:31;;;;;;;10.98;9.88;;;;;;;;;;5095385;28;20113;-59
2022/05/06 07:49:37;;;;;;;12.70;9.55;;;;;;;;;;5079961;28;20024;-59
2022/05/06 07:52:12;;;;;;;9.18;8.27;;;;;;;;;;5069716;28;20501;-59
2022/05/06 07:54:50;;;;;;;12.43;8.95;;;;;;;;;;5097197;28;20523;-59
2022/05/06 07:57:25;;;;;;;9.05;8.05;;;;;;;;;;5097625;28;20028;-58
2022/05/06 08:00:24;;;;;;;9.85;8.60;;;;;;;;;;5098413;28;20401;-58
2022/05/06 08:06:53;;;;;;;10.85;7.95;;;;;;;;;;5094865;28;20089;-59
2022/05/06 08:09:04;;;;;;;13.95;9.15;;;;;;;;;;5088701;28;20042;-59
2022/05/06 08:11:47;;;;;;;12.52;9.18;;;;;;;;;;5097296;28;20032;-59
2022/05/06 08:17:25;;;;;;;9.80;8.70;;;;;;;;;;5097331;28;20059;-59
2022/05/06 08:20:29;;;;;;;9.40;8.15;;;;;;;;;;5096804;28;20038;-59
2022/05/06 08:23:01;;;;;;;10.38;8.90;;;;;;;;;;5017674;28;20048;-58
2022/05/06 08:25:40;;;;;;;;;;;;;;;;;;;;;
2022/05/06 08:28:32;;;;;;;10.98;8.23;;;;;;;;;;5052683;28;20038;-59
2022/05/06 08:34:12;;;;;;;10.30;7.55;;;;;;;;;;5110873;28;20050;-59
2022/05/06 08:40:13;;;;;;;11.93;8.50;;;;;;;;;;5110159;28;20031;-59
2022/05/06 08:42:54;;;;;;;10.57;8.52;;;;;;;;;;5110288;28;20024;-59
2022/05/06 08:54:14;;;;;;;8.15;6.63;;;;;;;;;;5111287;28;20043;-58
2022/05/06 08:57:00;;;;;;;;;;;;;;;;;;;;;
2022/05/06 08:59:33;;;;;;;8.15;7.25;;;;;;;;;;5029026;28;20069;-58
2022/05/06 09:02:28;;;;;;;8.15;6.72;;;;;;;;;;5095378;28;20137;-56
2022/05/06 09:05:28;;;;;;;7.55;6.25;;;;;;;;;;5087977;28;20028;-58
2022/05/06 09:08:07;;;;;;;8.57;7.47;;;;;;;;;;5110812;28;20024;-58
2022/05/06 09:11:08;;;;;;;;;;;;;;;;;;;;;
2022/05/06 09:14:06;;;;;;;;;;;;;;;;;;;;;
2022/05/06 09:19:29;;;;;;;9.13;6.50;;;;;;;;;;5027266;28;20034;-58
2022/05/06 09:22:18;;;;;;;10.63;6.68;;;;;;;;;;5027719;28;20033;-58
2022/05/06 09:24:59;;;;;;;7.95;6.85;;;;;;;;;;5088448;28;20081;-58
2022/05/06 09:27:42;;;;;;;8.82;6.20;;;;;;;;;;5110558;28;20024;-58
2022/05/06 09:30:25;;;;;;;9.65;6.88;;;;;;;;;;5109570;28;20031;-58
2022/05/06 09:35:56;;;;;;;6.05;5.15;;;;;;;;;;5094262;28;20070;-58
2022/05/06 09:41:40;;;;;;;9.02;6.95;;;;;;;;;;5109333;28;20093;-57
2022/05/06 09:44:15;;;;;;;6.97;5.43;;;;;;;;;;5109711;28;20028;-57
2022/05/06 09:47:12;;;;;;;8.35;6.65;;;;;;;;;;5108555;28;20028;-57
2022/05/06 09:53:13;;;;;;;6.95;6.25;;;;;;;;;;5104127;28;20096;-58
2022/05/06 09:55:57;;;;;;;6.63;5.85;;;;;;;;;;5108243;28;20028;-57
2022/05/06 09:58:58;;;;;;;7.38;5.82;;;;;;;;;;5106702;28;20100;-57
2022/05/06 10:04:23;;;;;;;7.30;5.95;;;;;;;;;;5079203;28;20058;-58
2022/05/06 10:10:17;;;;;;;;;;;;;;;;;;;;;
2022/05/06 10:16:17;;;;;;;11.27;6.72;;;;;;;;;;5037700;28;20122;-58
2022/05/06 10:18:55;;;;;;;8.20;5.97;;;;;;;;;;5046007;28;20030;-58
2022/05/06 10:21:40;;;;;;;7.25;5.90;;;;;;;;;;5046691;28;20152;-59
2022/05/06 10:24:26;;;;;;;6.63;6.00;;;;;;;;;;5046882;28;20049;-56
2022/05/06 10:33:02;;;;;;;8.30;6.95;;;;;;;;;;5043726;28;20080;-57
2022/05/06 10:35:51;;;;;;;9.80;6.20;;;;;;;;;;5046017;28;20097;-57
2022/05/06 10:44:45;;;;;;;13.02;6.85;;;;;;;;;;5074100;28;19931;-57
2022/05/06 10:50:15;;;;;;;6.65;6.05;;;;;;;;;;5106660;28;20062;-57
2022/05/06 10:56:10;;;;;;;;;;;;;;;;;;;;;
2022/05/06 11:02:06;;;;;;;7.70;5.75;;;;;;;;;;5072414;28;20069;-57
2022/05/06 11:07:52;;;;;;;7.93;6.03;;;;;;;;;;5082094;28;20477;-57
2022/05/06 11:10:37;;;;;;;8.45;6.22;;;;;;;;;;5106213;28;20111;-58
2022/05/06 11:13:17;;;;;;;8.48;6.93;;;;;;;;;;5089080;28;20359;-58
2022/05/06 11:19:12;;;;;;;11.40;6.50;;;;;;;;;;5106536;28;20035;-58
2022/05/06 11:21:53;;;;;;;5.80;5.20;;;;;;;;;;5076500;28;20063;-58
2022/05/06 11:24:55;;;;;;;7.50;6.22;;;;;;;;;;5106626;28;20028;-58
2022/05/06 11:31:17;;;;;;;6.80;5.05;;;;;;;;;;5044164;28;20045;-57
2022/05/06 11:43:44;;;;;;;5.88;5.05;;;;;;;;;;5056291;28;20075;-56
2022/05/06 11:52:06;;;;;;;6.10;5.50;;;;;;;;;;5072844;28;20557;-56
2022/05/06 11:58:43;;;;;;;6.85;4.90;;;;;;;;;;4998617;28;20087;-55
2022/05/06 12:08:27;;;;;;;6.78;5.15;;;;;;;;;;5069914;28;20108;-57
2022/05/06 12:11:20;;;;;;;7.32;5.53;;;;;;;;;;5072366;28;20032;-56
2022/05/06 12:17:01;;;;;;;7.57;5.22;;;;;;;;;;5076963;28;20187;-57
2022/05/06 12:19:52;;;;;;;5.85;4.90;;;;;;;;;;5060430;28;20074;-56
2022/05/06 12:22:59;;;;;;;;;;;;;;;;;;;;;
2022/05/06 12:25:50;;;;;;;6.50;4.68;;;;;;;;;;5055654;28;20425;-56
2022/05/06 12:28:43;;;;;;;5.60;4.70;;;;;;;;;;5075079;28;20462;-57
2022/05/06 12:31:09;;;;;;;7.40;5.28;;;;;;;;;;5076444;28;20032;-57
2022/05/06 12:34:09;;;;;;;7.05;5.20;;;;;;;;;;5027712;28;20092;-57
2022/05/06 12:37:03;;;;;;;6.18;5.50;;;;;;;;;;5034923;28;20124;-57
2022/05/06 12:39:48;;;;;;;7.07;5.03;;;;;;;;;;5020016;28;20041;-57
2022/05/06 12:42:23;;;;;;;16.00;5.35;;;;;;;;;;5034701;28;20029;-55
2022/05/06 12:44:58;;;;;;;9.07;4.32;;;;;;;;;;5034167;28;20026;-57
2022/05/06 12:50:38;;;;;;;7.80;4.80;;;;;;;;;;5034264;28;20487;-56
2022/05/06 12:53:26;;;;;;;6.28;5.13;;;;;;;;;;5035013;28;20034;-55
2022/05/06 12:59:04;;;;;;;7.90;5.72;;;;;;;;;;5038878;28;20024;-56
2022/05/06 13:05:18;;;;;;;7.03;4.72;;;;;;;;;;4999838;28;20400;-57
2022/05/06 13:08:05;;;;;;;7.40;5.13;;;;;;;;;;5072118;28;20060;-56
2022/05/06 13:10:55;;;;;;;6.20;5.60;;;;;;;;;;5074819;28;20029;-54
2022/05/06 13:13:37;;;;;;;9.47;5.20;;;;;;;;;;5059489;28;20461;-56
2022/05/06 13:16:12;;;;;;;7.95;5.55;;;;;;;;;;5074402;28;20043;-56
2022/05/06 13:19:25;;;;;;;8.25;5.55;;;;;;;;;;5075319;28;20396;-56
2022/05/06 13:21:43;;;;;;;6.88;5.00;;;;;;;;;;5061010;28;20447;-56
2022/05/06 13:24:28;;;;;;;6.13;4.25;;;;;;;;;;5075180;28;20067;-57
2022/05/06 13:27:21;;;;;;;8.48;5.38;;;;;;;;;;5075722;28;20031;-54
2022/05/06 13:30:16;;;;;;;8.98;4.97;;;;;;;;;;5075615;28;20029;-55
2022/05/06 13:33:02;;;;;;;5.60;5.10;;;;;;;;;;5075522;28;20033;-57
2022/05/06 13:39:05;;;;;;;4.95;4.45;;;;;;;;;;4973604;28;20085;-56
2022/05/06 13:41:44;;;;;;;7.72;4.40;;;;;;;;;;4993385;28;20038;-57
2022/05/06 13:44:46;;;;;;;4.63;4.15;;;;;;;;;;4993552;28;20136;-57
2022/05/06 13:47:15;;;;;;;8.00;4.90;;;;;;;;;;4958169;28;20034;-57
2022/05/06 13:53:06;;;;;;;6.63;4.78;;;;;;;;;;4985809;28;20062;-56
2022/05/06 14:01:55;;;;;;;6.88;5.68;;;;;;;;;;5074956;28;20397;-56
2022/05/06 14:07:34;;;;;;;5.20;4.70;;;;;;;;;;5072332;28;20051;-56
2022/05/06 14:10:28;;;;;;;4.88;3.92;;;;;;;;;;5075077;28;20389;-56
2022/05/06 14:13:10;;;;;;;6.18;4.32;;;;;;;;;;5075527;28;20035;-55
2022/05/06 14:18:40;;;;;;;5.38;4.43;;;;;;;;;;5059243;28;20036;-56
2022/05/06 14:21:53;;;;;;;6.25;4.75;;;;;;;;;;5074782;28;20032;-56
2022/05/06 14:24:33;;;;;;;5.30;4.57;;;;;;;;;;5076553;28;20047;-56
2022/05/06 14:27:15;;;;;;;5.90;5.13;;;;;;;;;;5074515;28;20043;-57
2022/05/06 14:30:04;;;;;;;5.78;4.78;;;;;;;;;;5073103;28;20450;-56
2022/05/06 14:32:39;;;;;;;5.20;4.55;;;;;;;;;;5070074;28;20033;-54
2022/05/06 14:35:30;;;;;;;4.50;4.05;;;;;;;;;;5068762;28;20109;-56
2022/05/06 14:38:27;;;;;;;5.95;4.93;;;;;;;;;;5079892;28;20028;-57
2022/05/06 14:41:16;;;;;;;;;;;;;;;;;;;;;
2022/05/06 14:43:59;;;;;;;5.45;4.72;;;;;;;;;;5032542;28;20025;-57
2022/05/06 14:46:40;;;;;;;6.68;4.85;;;;;;;;;;5025905;28;20100;-55
2022/05/06 14:49:08;;;;;;;8.75;4.38;;;;;;;;;;5011789;28;20049;-55
2022/05/06 14:51:58;;;;;;;13.35;4.78;;;;;;;;;;5012686;28;20425;-56
2022/05/06 14:54:30;;;;;;;6.15;3.95;;;;;;;;;;5012361;28;20026;-57
2022/05/06 14:57:08;;;;;;;5.38;4.80;;;;;;;;;;5012302;28;20484;-56
2022/05/06 14:59:47;;;;;;;6.35;4.82;;;;;;;;;;4996624;28;20034;-55
2022/05/06 15:02:24;;;;;;;5.38;4.82;;;;;;;;;;5011859;28;20468;-56
2022/05/06 15:08:24;;;;;;;8.40;4.57;;;;;;;;;;5014958;28;20033;-55
2022/05/06 15:11:00;;;;;;;6.75;4.25;;;;;;;;;;5040651;28;20053;-58
2022/05/06 15:13:31;;;;;;;6.95;4.18;;;;;;;;;;5092261;28;20046;-57
2022/05/06 15:16:03;;;;;;;6.25;4.72;;;;;;;;;;5091011;28;20028;-57
2022/05/06 15:21:53;;;;;;;5.65;4.43;;;;;;;;;;5098556;28;20035;-57
2022/05/06 15:24:50;;;;;;;7.60;4.75;;;;;;;;;;5093127;28;20035;-55
2022/05/06 15:31:00;;;;;;;6.20;4.00;;;;;;;;;;5034217;28;20056;-56
2022/05/06 15:33:35;;;;;;;;;;;;;;;;;;5095601;28;20044;-56
2022/05/06 15:36:36;;;;;;;6.75;5.22;;;;;;;;;;5057813;28;19916;-55
2022/05/06 15:39:38;;;;;;;;;;;;;;;;;;;;;
2022/05/06 15:45:34;;;;;;;5.60;4.35;;;;;;;;;;5023542;28;20103;-57
2022/05/06 15:48:20;;;;;;;7.63;5.53;;;;;;;;;;5077283;28;20473;-57
2022/05/06 15:50:49;;;;;;;5.68;5.10;;;;;;;;;;5046458;28;20490;-57
2022/05/06 15:53:24;;;;;;;7.55;5.55;;;;;;;;;;5058536;28;20055;-55
2022/05/06 15:55:56;;;;;;;9.55;5.28;;;;;;;;;;5076601;28;20485;-57
2022/05/06 15:58:40;;;;;;;101.43;71.97;;;;;;;;;;5077007;28;20035;-56
2022/05/06 16:01:30;;;;;;;34.38;30.60;;;;;;;;;;5077500;28;20025;-57
2022/05/06 16:04:23;;;;;;;24.33;19.35;;;;;;;;;;5058703;28;20035;-59
2022/05/06 16:07:08;;;;;;;9.10;6.30;;;;;;;;;;5076150;28;20109;-57
2022/05/06 16:10:03;;;;;;;10.90;8.30;;;;;;;;;;5076736;28;20497;-57
2022/05/06 16:12:56;;;;;;;8.80;5.50;;;;;;;;;;5075479;28;20064;-57
2022/05/06 16:15:26;;;;;;;6.57;5.20;;;;;;;;;;5077286;28;20054;-57
2022/05/06 16:18:06;;;;;;;11.30;4.85;;;;;;;;;;5058004;28;20466;-57
2022/05/06 16:24:06;;;;;;;41.42;24.02;;;;;;;;;;5077098;28;20039;-57
2022/05/06 16:26:36;;;;;;;8.82;7.15;;;;;;;;;;5056898;28;20067;-57
2022/05/06 16:38:08;;;;;;;8.35;5.25;;;;;;;;;;5014654;28;20072;-57
2022/05/06 16:41:11;;;;;;;7.53;4.95;;;;;;;;;;5014116;28;20038;-57
2022/05/06 16:43:52;;;;;;;7.72;4.57;;;;;;;;;;5014562;28;20041;-57
2022/05/06 16:46:24;;;;;;;5.38;4.07;;;;;;;;;;5014299;28;20057;-56
2022/05/06 16:49:03;;;;;;;5.93;4.18;;;;;;;;;;5035426;28;20486;-56
2022/05/06 16:51:50;;;;;;;5.75;4.43;;;;;;;;;;5078478;28;20470;-57
2022/05/06 16:54:28;;;;;;;11.13;5.90;;;;;;;;;;5087397;28;20039;-57
2022/05/06 16:57:16;;;;;;;7.70;4.82;;;;;;;;;;5077451;28;20035;-58
2022/05/06 17:00:08;;;;;;;4.43;3.97;;;;;;;;;;5088696;28;20055;-56
2022/05/06 17:02:44;;;;;;;15.00;9.93;;;;;;;;;;5077951;28;20355;-56
2022/05/06 17:08:18;;;;;;;4.88;4.38;;;;;;;;;;5096546;28;20081;-57
2022/05/06 17:11:09;;;;;;;9.30;4.35;;;;;;;;;;5068856;28;20052;-56
2022/05/06 17:14:10;;;;;;;5.57;3.92;;;;;;;;;;5096488;28;20149;-56
2022/05/06 17:16:52;;;;;;;9.23;4.68;;;;;;;;;;5096757;28;20461;-57
2022/05/06 17:19:34;;;;;;;10.18;3.90;;;;;;;;;;5077957;28;20123;-57
2022/05/06 17:25:16;;;;;;;5.13;4.07;;;;;;;;;;5081863;28;20043;-57
2022/05/06 17:28:10;;;;;;;;;;;;;;;;;;;;;
2022/05/06 17:33:29;;;;;;;5.60;3.72;;;;;;;;;;5096859;28;20031;-57
2022/05/06 17:39:15;;;;;;;;;;;;;;;;;;;;;
2022/05/06 17:42:12;;;;;;;;;;;;;;;;;;;;;
2022/05/06 17:44:50;;;;;;;5.28;4.53;;;;;;;;;;5095523;28;20503;-57
2022/05/06 17:47:30;;;;;;;5.68;4.47;;;;;;;;;;5095784;28;20402;-57
2022/05/06 17:50:16;;;;;;;5.77;4.73;;;;;;;;;;5096668;28;20040;-57
2022/05/06 17:53:27;;;;;;;6.75;4.63;;;;;;;;;;5084632;28;20024;-57
2022/05/06 17:56:15;;;;;;;7.68;4.38;;;;;;;;;;5103617;28;20055;-55
2022/05/06 17:58:52;;;;;;;4.97;4.32;;;;;;;;;;5081294;28;20108;-57
2022/05/06 18:01:28;;;;;;;4.15;3.45;;;;;;;;;;5102889;28;20028;-56
2022/05/06 18:04:13;;;;;;;7.68;4.55;;;;;;;;;;5104771;28;20024;-57
2022/05/06 18:07:10;;;;;;;6.80;4.18;;;;;;;;;;5105764;28;20061;-56
2022/05/06 18:09:52;;;;;;;4.80;4.13;;;;;;;;;;5102341;28;20118;-57
2022/05/06 18:12:47;;;;;;;5.63;3.88;;;;;;;;;;5084177;28;20131;-57
2022/05/06 18:15:45;;;;;;;4.40;3.47;;;;;;;;;;5084414;28;20385;-57
2022/05/06 18:18:52;;;;;;;5.00;4.15;;;;;;;;;;5076171;28;20081;-55
2022/05/06 18:21:48;;;;;;;4.40;3.90;;;;;;;;;;5061150;28;20488;-57
2022/05/06 18:24:31;;;;;;;6.57;4.35;;;;;;;;;;5100351;28;20028;-58
2022/05/06 18:27:10;;;;;;;4.65;3.75;;;;;;;;;;5082507;28;20036;-57
2022/05/06 18:29:54;;;;;;;4.40;3.42;;;;;;;;;;5083047;28;20032;-58
2022/05/06 18:35:45;;;;;;;4.63;3.78;;;;;;;;;;5104234;28;20386;-57
2022/05/06 18:39:03;;;;;;;4.65;3.75;;;;;;;;;;5097119;28;20047;-58
2022/05/06 18:41:41;;;;;;;4.90;3.60;;;;;;;;;;5039514;28;20502;-57
2022/05/06 18:50:53;;;;;;;4.68;3.45;;;;;;;;;;4996660;28;20034;-56
2022/05/06 18:53:31;;;;;;;7.80;3.47;;;;;;;;;;5093448;28;20085;-56
2022/05/06 18:59:15;;;;;;;5.43;4.10;;;;;;;;;;5012417;28;20033;-55
2022/05/06 19:02:21;;;;;;;7.15;4.50;;;;;;;;;;4995316;28;20484;-56
2022/05/06 19:05:03;;;;;;;5.70;3.47;;;;;;;;;;4970024;28;20126;-56
2022/05/06 19:07:43;;;;;;;;;;;;;;;;;;;;;
2022/05/06 19:10:33;;;;;;;5.55;4.15;;;;;;;;;;4979825;28;20034;-58
2022/05/06 19:13:11;;;;;;;4.72;3.70;;;;;;;;;;4979883;28;20042;-57
2022/05/06 19:16:02;;;;;;;6.05;4.35;;;;;;;;;;4980120;28;20026;-56
2022/05/06 19:18:34;;;;;;;5.73;4.20;;;;;;;;;;4980574;28;20085;-60
2022/05/06 19:27:31;;;;;;;;;;;;;;;;;;;;;
2022/05/06 19:33:22;;;;;;;;;;;;;;;;;;;;;
2022/05/06 19:36:56;;;;;;;7.72;4.15;;;;;;;;;;4985629;28;20587;-58
2022/05/06 19:39:14;;;;;;;;;;;;;;;;;;;;;
2022/05/06 19:42:18;;;;;;;6.05;3.80;;;;;;;;;;5096437;28;20170;-56
2022/05/06 19:48:23;;;;;;;4.90;3.75;;;;;;;;;;5037809;28;20610;-57
2022/05/06 19:51:18;;;;;;;6.50;4.03;;;;;;;;;;5036485;28;20034;-57
2022/05/06 19:54:10;;;;;;;6.40;4.63;;;;;;;;;;4995820;28;20387;-57
2022/05/06 19:56:40;;;;;;;7.22;4.78;;;;;;;;;;4978599;28;20034;-57
2022/05/06 19:59:29;;;;;;;;;;;;;;;;;;;;;
2022/05/06 20:05:13;;;;;;;4.47;3.83;;;;;;;;;;5032619;28;20478;-54
2022/05/06 20:08:26;;;;;;;7.07;4.40;;;;;;;;;;5038328;28;20033;-56
2022/05/06 20:17:39;;;;;;;7.32;4.75;;;;;;;;;;5060177;28;20110;-55
2022/05/06 20:23:33;;;;;;;6.38;4.70;;;;;;;;;;5088601;28;20592;-58
2022/05/06 20:35:53;;;;;;;;;;;;;;;;;;;;;
2022/05/06 20:38:36;;;;;;;6.95;5.10;;;;;;;;;;5004140;28;20458;-58
2022/05/06 20:44:16;;;;;;;6.20;4.75;;;;;;;;;;5096824;28;20160;-56
2022/05/06 20:47:29;;;;;;;8.70;4.65;;;;;;;;;;5079340;28;20033;-57
2022/05/06 20:50:35;;;;;;;7.78;4.28;;;;;;;;;;5036426;28;20033;-58
2022/05/06 20:56:51;;;;;;;;;;;;;;;;;;;;;
2022/05/06 20:59:28;;;;;;;6.25;4.97;;;;;;;;;;5044834;28;20117;-56
2022/05/06 21:02:26;;;;;;;5.65;4.68;;;;;;;;;;5044704;28;20036;-56
2022/05/06 21:05:13;;;;;;;5.65;4.15;;;;;;;;;;5026425;28;20034;-55
2022/05/06 21:14:06;;;;;;;7.45;4.85;;;;;;;;;;5044472;28;20033;-55
2022/05/06 21:16:52;;;;;;;8.55;5.03;;;;;;;;;;5018995;28;20053;-54
2022/05/06 21:19:45;;;;;;;5.15;3.88;;;;;;;;;;5059193;28;20037;-54
2022/05/06 21:22:40;;;;;;;8.07;4.43;;;;;;;;;;5087063;28;20024;-56
2022/05/06 21:25:18;;;;;;;7.63;3.70;;;;;;;;;;5106349;28;20103;-57
2022/05/06 21:30:58;;;;;;;;;;;;;;;;;;;;;
2022/05/06 21:34:02;;;;;;;7.50;4.88;;;;;;;;;;5106213;28;20092;-57
2022/05/06 21:45:39;;;;;;;5.75;4.40;;;;;;;;;;5108100;28;20082;-57
2022/05/06 21:48:27;;;;;;;;;;;;;;;;;;;;;
2022/05/06 21:51:04;;;;;;;5.65;3.45;;;;;;;;;;5077587;28;20091;-57
2022/05/06 21:54:03;;;;;;;5.38;4.57;;;;;;;;;;5106080;28;20044;-57
2022/05/06 22:00:30;;;;;;;5.28;3.53;;;;;;;;;;5024631;28;20161;-56
2022/05/06 22:06:13;;;;;;;4.40;3.60;;;;;;;;;;4966552;29;20039;-57
2022/05/06 22:08:45;;;;;;;5.82;4.10;;;;;;;;;;4978130;28;20110;-57
2022/05/06 22:11:30;;;;;;;4.88;4.13;;;;;;;;;;5032638;28;20037;-56
2022/05/06 22:14:24;;;;;;;4.47;3.08;;;;;;;;;;5045276;28;20129;-57
2022/05/06 22:17:28;;;;;;;5.55;3.30;;;;;;;;;;5037910;28;20038;-55
2022/05/06 22:26:00;;;;;;;;;;;;;;;;;;;;;
2022/05/06 22:28:35;;;;;;;3.78;3.15;;;;;;;;;;5043361;28;20160;-56
2022/05/06 22:31:09;;;;;;;7.72;3.85;;;;;;;;;;5093138;28;20093;-56
2022/05/06 22:36:45;;;;;;;4.95;3.63;;;;;;;;;;5106068;28;20354;-56
2022/05/06 22:39:27;;;;;;;5.45;3.65;;;;;;;;;;5105867;28;20028;-57
2022/05/06 22:48:01;;;;;;;10.02;3.67;;;;;;;;;;5106224;28;20046;-56
2022/05/06 22:53:45;;;;;;;3.65;3.20;;;;;;;;;;5096678;28;20100;-54
2022/05/06 22:56:16;;;;;;;5.70;3.15;;;;;;;;;;5105366;28;20346;-57
2022/05/06 22:59:00;;;;;;;4.68;3.58;;;;;;;;;;5104677;28;20036;-56
2022/05/06 23:04:41;;;;;;;4.90;3.97;;;;;;;;;;5105774;28;20043;-57
2022/05/06 23:07:49;;;;;;;4.47;3.42;;;;;;;;;;5088126;28;20028;-56
2022/05/06 23:10:38;;;;;;;4.47;3.85;;;;;;;;;;5044161;28;20044;-56
2022/05/06 23:13:15;;;;;;;5.35;4.28;;;;;;;;;;5027530;28;20045;-54
2022/05/06 23:16:01;;;;;;;4.50;3.83;;;;;;;;;;5043442;28;20492;-55
2022/05/06 23:19:17;;;;;;;10.50;4.30;;;;;;;;;;5042615;28;20495;-57
2022/05/06 23:25:18;;;;;;;5.00;4.28;;;;;;;;;;5011297;28;20125;-57
2022/05/06 23:28:14;;;;;;;5.65;3.88;;;;;;;;;;4985509;28;20086;-57
2022/05/06 23:33:44;;;;;;;5.97;4.38;;;;;;;;;;4976956;28;20039;-57
2022/05/06 23:39:09;;;;;;;4.80;3.70;;;;;;;;;;4997044;28;20056;-57
2022/05/06 23:41:56;;;;;;;6.13;4.55;;;;;;;;;;5091056;28;20048;-57
2022/05/06 23:44:50;;;;;;;;;;;;;;;;;;;;;